sensor_id;sensor_type;location;lat;lon;timestamp;P1;durP1;ratioP1;P2;durP2;ratioP2
73132;SDS011;61320;52.008;4.530;2023-04-20T00:00:45;5.33;;;5.32;;
73132;SDS011;61320;52.008;4.530;2023-04-20T00:03:11;5.05;;;5.05;;
73132;SDS011;61320;52.008;4.530;2023-04-20T00:05:37;5.26;;;5.26;;
73132;SDS011;61320;52.008;4.530;2023-04-20T00:08:03;5.12;;;5.12;;
73132;SDS011;61320;52.008;4.530;2023-04-20T00:10:28;5.24;;;5.24;;
73132;SDS011;61320;52.008;4.530;2023-04-20T00:12:54;5.12;;;5.12;;
73132;SDS011;61320;52.008;4.530;2023-04-20T00:15:19;5.13;;;5.13;;
73132;SDS011;61320;52.008;4.530;2023-04-20T00:17:45;5.11;;;5.11;;
73132;SDS011;61320;52.008;4.530;2023-04-20T00:20:12;4.88;;;4.88;;
73132;SDS011;61320;52.008;4.530;2023-04-20T00:22:39;4.86;;;4.86;;
73132;SDS011;61320;52.008;4.530;2023-04-20T00:25:05;4.85;;;4.85;;
73132;SDS011;61320;52.008;4.530;2023-04-20T00:27:31;4.91;;;4.91;;
73132;SDS011;61320;52.008;4.530;2023-04-20T00:29:56;4.90;;;4.90;;
73132;SDS011;61320;52.008;4.530;2023-04-20T00:32:22;4.77;;;4.77;;
73132;SDS011;61320;52.008;4.530;2023-04-20T00:34:47;4.69;;;4.69;;
73132;SDS011;61320;52.008;4.530;2023-04-20T00:37:13;4.80;;;4.80;;
73132;SDS011;61320;52.008;4.530;2023-04-20T00:39:38;4.73;;;4.73;;
73132;SDS011;61320;52.008;4.530;2023-04-20T00:42:05;4.63;;;4.63;;
73132;SDS011;61320;52.008;4.530;2023-04-20T00:44:32;4.77;;;4.77;;
73132;SDS011;61320;52.008;4.530;2023-04-20T00:46:58;4.54;;;4.54;;
73132;SDS011;61320;52.008;4.530;2023-04-20T00:49:28;4.58;;;4.58;;
73132;SDS011;61320;52.008;4.530;2023-04-20T00:51:57;4.82;;;4.82;;
73132;SDS011;61320;52.008;4.530;2023-04-20T00:54:24;4.72;;;4.72;;
73132;SDS011;61320;52.008;4.530;2023-04-20T00:56:51;4.73;;;4.73;;
73132;SDS011;61320;52.008;4.530;2023-04-20T00:59:17;4.50;;;4.50;;
73132;SDS011;61320;52.008;4.530;2023-04-20T01:01:42;4.34;;;4.34;;
73132;SDS011;61320;52.008;4.530;2023-04-20T01:04:08;4.73;;;4.73;;
73132;SDS011;61320;52.008;4.530;2023-04-20T01:06:33;4.43;;;4.43;;
73132;SDS011;61320;52.008;4.530;2023-04-20T01:08:59;4.33;;;4.33;;
73132;SDS011;61320;52.008;4.530;2023-04-20T01:11:25;4.32;;;4.32;;
73132;SDS011;61320;52.008;4.530;2023-04-20T01:13:51;4.60;;;4.60;;
73132;SDS011;61320;52.008;4.530;2023-04-20T01:16:16;4.45;;;4.45;;
73132;SDS011;61320;52.008;4.530;2023-04-20T01:18:46;4.58;;;4.58;;
73132;SDS011;61320;52.008;4.530;2023-04-20T01:21:14;4.58;;;4.58;;
73132;SDS011;61320;52.008;4.530;2023-04-20T01:23:41;4.60;;;4.60;;
73132;SDS011;61320;52.008;4.530;2023-04-20T01:26:07;4.47;;;4.47;;
73132;SDS011;61320;52.008;4.530;2023-04-20T01:28:35;4.49;;;4.49;;
73132;SDS011;61320;52.008;4.530;2023-04-20T01:31:04;4.56;;;4.56;;
73132;SDS011;61320;52.008;4.530;2023-04-20T01:33:31;4.83;;;4.83;;
73132;SDS011;61320;52.008;4.530;2023-04-20T01:35:57;4.47;;;4.47;;
73132;SDS011;61320;52.008;4.530;2023-04-20T01:38:23;4.95;;;4.95;;
73132;SDS011;61320;52.008;4.530;2023-04-20T01:40:50;4.69;;;4.69;;
73132;SDS011;61320;52.008;4.530;2023-04-20T01:43:16;4.79;;;4.79;;
73132;SDS011;61320;52.008;4.530;2023-04-20T01:45:42;4.50;;;4.50;;
73132;SDS011;61320;52.008;4.530;2023-04-20T01:48:07;4.60;;;4.60;;
73132;SDS011;61320;52.008;4.530;2023-04-20T01:50:33;4.88;;;4.88;;
73132;SDS011;61320;52.008;4.530;2023-04-20T01:52:58;4.56;;;4.56;;
73132;SDS011;61320;52.008;4.530;2023-04-20T01:55:24;4.57;;;4.57;;
73132;SDS011;61320;52.008;4.530;2023-04-20T01:57:49;4.72;;;4.72;;
73132;SDS011;61320;52.008;4.530;2023-04-20T02:00:15;4.94;;;4.94;;
73132;SDS011;61320;52.008;4.530;2023-04-20T02:02:40;4.94;;;4.94;;
73132;SDS011;61320;52.008;4.530;2023-04-20T02:05:06;4.92;;;4.92;;
73132;SDS011;61320;52.008;4.530;2023-04-20T02:07:32;5.02;;;5.02;;
73132;SDS011;61320;52.008;4.530;2023-04-20T02:09:57;5.06;;;5.06;;
73132;SDS011;61320;52.008;4.530;2023-04-20T02:12:23;5.15;;;5.15;;
73132;SDS011;61320;52.008;4.530;2023-04-20T02:14:48;4.82;;;4.82;;
73132;SDS011;61320;52.008;4.530;2023-04-20T02:17:14;5.10;;;5.10;;
73132;SDS011;61320;52.008;4.530;2023-04-20T02:19:39;5.25;;;5.25;;
73132;SDS011;61320;52.008;4.530;2023-04-20T02:22:04;5.43;;;5.43;;
73132;SDS011;61320;52.008;4.530;2023-04-20T02:24:30;5.75;;;5.75;;
73132;SDS011;61320;52.008;4.530;2023-04-20T02:26:56;5.75;;;5.75;;
73132;SDS011;61320;52.008;4.530;2023-04-20T02:29:22;5.99;;;5.99;;
73132;SDS011;61320;52.008;4.530;2023-04-20T02:31:48;6.33;;;6.33;;
73132;SDS011;61320;52.008;4.530;2023-04-20T02:34:14;6.38;;;6.38;;
73132;SDS011;61320;52.008;4.530;2023-04-20T02:36:39;6.87;;;6.87;;
73132;SDS011;61320;52.008;4.530;2023-04-20T02:39:05;7.20;;;7.20;;
73132;SDS011;61320;52.008;4.530;2023-04-20T02:41:31;7.42;;;7.42;;
73132;SDS011;61320;52.008;4.530;2023-04-20T02:43:56;7.57;;;7.57;;
73132;SDS011;61320;52.008;4.530;2023-04-20T02:46:22;7.53;;;7.53;;
73132;SDS011;61320;52.008;4.530;2023-04-20T02:48:47;7.61;;;7.61;;
73132;SDS011;61320;52.008;4.530;2023-04-20T02:51:12;7.36;;;7.36;;
73132;SDS011;61320;52.008;4.530;2023-04-20T02:53:38;7.56;;;7.56;;
73132;SDS011;61320;52.008;4.530;2023-04-20T02:56:03;8.03;;;8.03;;
73132;SDS011;61320;52.008;4.530;2023-04-20T02:58:29;7.88;;;7.88;;
73132;SDS011;61320;52.008;4.530;2023-04-20T03:01:01;7.72;;;7.72;;
73132;SDS011;61320;52.008;4.530;2023-04-20T03:03:27;7.63;;;7.63;;
73132;SDS011;61320;52.008;4.530;2023-04-20T03:05:53;7.84;;;7.84;;
73132;SDS011;61320;52.008;4.530;2023-04-20T03:08:20;7.55;;;7.55;;
73132;SDS011;61320;52.008;4.530;2023-04-20T03:10:45;7.89;;;7.89;;
73132;SDS011;61320;52.008;4.530;2023-04-20T03:13:11;7.50;;;7.50;;
73132;SDS011;61320;52.008;4.530;2023-04-20T03:15:36;7.84;;;7.84;;
73132;SDS011;61320;52.008;4.530;2023-04-20T03:18:02;7.62;;;7.62;;
73132;SDS011;61320;52.008;4.530;2023-04-20T03:20:28;7.50;;;7.50;;
73132;SDS011;61320;52.008;4.530;2023-04-20T03:22:53;7.57;;;7.57;;
73132;SDS011;61320;52.008;4.530;2023-04-20T03:25:19;7.56;;;7.56;;
73132;SDS011;61320;52.008;4.530;2023-04-20T03:27:45;7.45;;;7.45;;
73132;SDS011;61320;52.008;4.530;2023-04-20T03:30:11;7.19;;;7.19;;
73132;SDS011;61320;52.008;4.530;2023-04-20T03:32:37;7.18;;;7.18;;
73132;SDS011;61320;52.008;4.530;2023-04-20T03:35:03;7.13;;;7.13;;
73132;SDS011;61320;52.008;4.530;2023-04-20T03:37:32;7.15;;;7.13;;
73132;SDS011;61320;52.008;4.530;2023-04-20T03:39:58;7.20;;;7.20;;
73132;SDS011;61320;52.008;4.530;2023-04-20T03:42:24;7.09;;;7.09;;
73132;SDS011;61320;52.008;4.530;2023-04-20T03:44:50;6.88;;;6.88;;
73132;SDS011;61320;52.008;4.530;2023-04-20T03:47:15;6.71;;;6.71;;
73132;SDS011;61320;52.008;4.530;2023-04-20T03:49:40;6.50;;;6.50;;
73132;SDS011;61320;52.008;4.530;2023-04-20T03:52:06;6.43;;;6.43;;
73132;SDS011;61320;52.008;4.530;2023-04-20T03:54:31;6.25;;;6.25;;
73132;SDS011;61320;52.008;4.530;2023-04-20T03:56:57;6.61;;;6.61;;
73132;SDS011;61320;52.008;4.530;2023-04-20T03:59:22;6.31;;;6.31;;
73132;SDS011;61320;52.008;4.530;2023-04-20T04:01:48;6.26;;;6.26;;
73132;SDS011;61320;52.008;4.530;2023-04-20T04:04:14;6.03;;;6.03;;
73132;SDS011;61320;52.008;4.530;2023-04-20T04:06:39;6.28;;;6.28;;
73132;SDS011;61320;52.008;4.530;2023-04-20T04:09:05;6.03;;;6.03;;
73132;SDS011;61320;52.008;4.530;2023-04-20T04:11:31;5.85;;;5.85;;
73132;SDS011;61320;52.008;4.530;2023-04-20T04:13:56;5.80;;;5.80;;
73132;SDS011;61320;52.008;4.530;2023-04-20T04:16:23;5.62;;;5.62;;
73132;SDS011;61320;52.008;4.530;2023-04-20T04:18:49;5.31;;;5.31;;
73132;SDS011;61320;52.008;4.530;2023-04-20T04:21:14;5.33;;;5.33;;
73132;SDS011;61320;52.008;4.530;2023-04-20T04:23:40;5.13;;;5.13;;
73132;SDS011;61320;52.008;4.530;2023-04-20T04:26:08;4.98;;;4.98;;
73132;SDS011;61320;52.008;4.530;2023-04-20T04:28:36;4.76;;;4.76;;
73132;SDS011;61320;52.008;4.530;2023-04-20T04:31:01;4.98;;;4.98;;
73132;SDS011;61320;52.008;4.530;2023-04-20T04:33:30;4.88;;;4.88;;
73132;SDS011;61320;52.008;4.530;2023-04-20T04:35:58;4.51;;;4.51;;
73132;SDS011;61320;52.008;4.530;2023-04-20T04:38:24;4.69;;;4.69;;
73132;SDS011;61320;52.008;4.530;2023-04-20T04:40:51;4.38;;;4.38;;
73132;SDS011;61320;52.008;4.530;2023-04-20T04:43:17;4.48;;;4.48;;
73132;SDS011;61320;52.008;4.530;2023-04-20T04:45:43;4.17;;;4.17;;
73132;SDS011;61320;52.008;4.530;2023-04-20T04:48:10;4.26;;;4.26;;
73132;SDS011;61320;52.008;4.530;2023-04-20T04:50:39;4.39;;;4.39;;
73132;SDS011;61320;52.008;4.530;2023-04-20T04:53:04;4.20;;;4.20;;
73132;SDS011;61320;52.008;4.530;2023-04-20T04:55:30;4.37;;;4.37;;
73132;SDS011;61320;52.008;4.530;2023-04-20T04:57:55;4.11;;;4.11;;
73132;SDS011;61320;52.008;4.530;2023-04-20T05:00:21;4.04;;;4.04;;
73132;SDS011;61320;52.008;4.530;2023-04-20T05:02:47;4.07;;;4.07;;
73132;SDS011;61320;52.008;4.530;2023-04-20T05:05:13;3.91;;;3.91;;
73132;SDS011;61320;52.008;4.530;2023-04-20T05:07:39;3.92;;;3.92;;
73132;SDS011;61320;52.008;4.530;2023-04-20T05:10:05;3.73;;;3.73;;
73132;SDS011;61320;52.008;4.530;2023-04-20T05:12:31;3.65;;;3.65;;
73132;SDS011;61320;52.008;4.530;2023-04-20T05:14:57;3.97;;;3.97;;
73132;SDS011;61320;52.008;4.530;2023-04-20T05:17:22;3.99;;;3.98;;
73132;SDS011;61320;52.008;4.530;2023-04-20T05:19:48;3.97;;;3.93;;
73132;SDS011;61320;52.008;4.530;2023-04-20T05:22:13;3.42;;;3.42;;
73132;SDS011;61320;52.008;4.530;2023-04-20T05:24:39;3.36;;;3.36;;
73132;SDS011;61320;52.008;4.530;2023-04-20T05:27:06;3.36;;;3.36;;
73132;SDS011;61320;52.008;4.530;2023-04-20T05:29:33;3.37;;;3.37;;
73132;SDS011;61320;52.008;4.530;2023-04-20T05:31:59;3.52;;;3.52;;
73132;SDS011;61320;52.008;4.530;2023-04-20T05:34:24;3.81;;;3.81;;
73132;SDS011;61320;52.008;4.530;2023-04-20T05:36:50;3.46;;;3.46;;
73132;SDS011;61320;52.008;4.530;2023-04-20T05:39:16;3.24;;;3.24;;
73132;SDS011;61320;52.008;4.530;2023-04-20T05:41:42;3.29;;;3.29;;
73132;SDS011;61320;52.008;4.530;2023-04-20T05:44:07;3.60;;;3.60;;
73132;SDS011;61320;52.008;4.530;2023-04-20T05:46:33;3.52;;;3.52;;
73132;SDS011;61320;52.008;4.530;2023-04-20T05:48:58;3.85;;;3.85;;
73132;SDS011;61320;52.008;4.530;2023-04-20T05:51:24;3.56;;;3.56;;
73132;SDS011;61320;52.008;4.530;2023-04-20T05:53:53;3.66;;;3.66;;
73132;SDS011;61320;52.008;4.530;2023-04-20T05:56:18;3.68;;;3.68;;
73132;SDS011;61320;52.008;4.530;2023-04-20T05:58:44;3.82;;;3.82;;
73132;SDS011;61320;52.008;4.530;2023-04-20T06:01:10;3.82;;;3.82;;
73132;SDS011;61320;52.008;4.530;2023-04-20T06:03:35;3.89;;;3.89;;
73132;SDS011;61320;52.008;4.530;2023-04-20T06:06:01;3.93;;;3.93;;
73132;SDS011;61320;52.008;4.530;2023-04-20T06:08:26;3.79;;;3.79;;
73132;SDS011;61320;52.008;4.530;2023-04-20T06:10:52;3.71;;;3.71;;
73132;SDS011;61320;52.008;4.530;2023-04-20T06:13:20;3.86;;;3.86;;
73132;SDS011;61320;52.008;4.530;2023-04-20T06:15:45;4.09;;;4.09;;
73132;SDS011;61320;52.008;4.530;2023-04-20T06:18:11;4.00;;;4.00;;
73132;SDS011;61320;52.008;4.530;2023-04-20T06:20:36;3.94;;;3.94;;
73132;SDS011;61320;52.008;4.530;2023-04-20T06:23:03;3.90;;;3.90;;
73132;SDS011;61320;52.008;4.530;2023-04-20T06:25:29;3.88;;;3.88;;
73132;SDS011;61320;52.008;4.530;2023-04-20T06:27:55;4.11;;;4.10;;
73132;SDS011;61320;52.008;4.530;2023-04-20T06:30:23;4.14;;;4.14;;
73132;SDS011;61320;52.008;4.530;2023-04-20T06:32:48;4.09;;;4.09;;
73132;SDS011;61320;52.008;4.530;2023-04-20T06:35:13;4.03;;;4.03;;
73132;SDS011;61320;52.008;4.530;2023-04-20T06:37:39;4.10;;;4.10;;
73132;SDS011;61320;52.008;4.530;2023-04-20T06:40:05;3.92;;;3.92;;
73132;SDS011;61320;52.008;4.530;2023-04-20T06:42:34;3.97;;;3.97;;
73132;SDS011;61320;52.008;4.530;2023-04-20T06:45:01;4.13;;;4.13;;
73132;SDS011;61320;52.008;4.530;2023-04-20T06:47:26;4.74;;;4.74;;
73132;SDS011;61320;52.008;4.530;2023-04-20T06:49:59;5.25;;;5.25;;
73132;SDS011;61320;52.008;4.530;2023-04-20T06:52:26;5.28;;;5.27;;
73132;SDS011;61320;52.008;4.530;2023-04-20T06:54:52;4.70;;;4.70;;
73132;SDS011;61320;52.008;4.530;2023-04-20T06:57:18;4.78;;;4.78;;
73132;SDS011;61320;52.008;4.530;2023-04-20T06:59:43;4.95;;;4.95;;
73132;SDS011;61320;52.008;4.530;2023-04-20T07:02:09;4.81;;;4.81;;
73132;SDS011;61320;52.008;4.530;2023-04-20T07:04:34;4.92;;;4.92;;
73132;SDS011;61320;52.008;4.530;2023-04-20T07:07:00;4.82;;;4.82;;
73132;SDS011;61320;52.008;4.530;2023-04-20T07:09:25;5.20;;;5.20;;
73132;SDS011;61320;52.008;4.530;2023-04-20T07:11:51;4.96;;;4.96;;
73132;SDS011;61320;52.008;4.530;2023-04-20T07:14:17;5.15;;;5.15;;
73132;SDS011;61320;52.008;4.530;2023-04-20T07:16:42;5.03;;;5.03;;
73132;SDS011;61320;52.008;4.530;2023-04-20T07:19:08;5.37;;;5.37;;
73132;SDS011;61320;52.008;4.530;2023-04-20T07:21:34;5.27;;;5.27;;
73132;SDS011;61320;52.008;4.530;2023-04-20T07:24:00;5.08;;;5.08;;
73132;SDS011;61320;52.008;4.530;2023-04-20T07:26:26;5.12;;;5.12;;
73132;SDS011;61320;52.008;4.530;2023-04-20T07:28:51;4.77;;;4.77;;
73132;SDS011;61320;52.008;4.530;2023-04-20T07:31:17;4.99;;;4.99;;
73132;SDS011;61320;52.008;4.530;2023-04-20T07:33:42;5.21;;;5.21;;
73132;SDS011;61320;52.008;4.530;2023-04-20T07:36:09;5.26;;;5.26;;
73132;SDS011;61320;52.008;4.530;2023-04-20T07:38:35;5.20;;;5.20;;
73132;SDS011;61320;52.008;4.530;2023-04-20T07:41:01;5.20;;;5.20;;
73132;SDS011;61320;52.008;4.530;2023-04-20T07:43:27;5.56;;;5.56;;
73132;SDS011;61320;52.008;4.530;2023-04-20T07:45:53;5.37;;;5.37;;
73132;SDS011;61320;52.008;4.530;2023-04-20T07:48:18;5.08;;;5.08;;
73132;SDS011;61320;52.008;4.530;2023-04-20T07:50:44;5.54;;;5.54;;
73132;SDS011;61320;52.008;4.530;2023-04-20T07:53:10;5.84;;;5.84;;
73132;SDS011;61320;52.008;4.530;2023-04-20T07:55:36;6.02;;;6.02;;
73132;SDS011;61320;52.008;4.530;2023-04-20T07:58:01;6.19;;;6.19;;
73132;SDS011;61320;52.008;4.530;2023-04-20T08:00:27;6.35;;;6.35;;
73132;SDS011;61320;52.008;4.530;2023-04-20T08:02:52;6.51;;;6.51;;
73132;SDS011;61320;52.008;4.530;2023-04-20T08:05:18;6.21;;;6.21;;
73132;SDS011;61320;52.008;4.530;2023-04-20T08:07:43;6.03;;;6.03;;
73132;SDS011;61320;52.008;4.530;2023-04-20T08:10:09;5.94;;;5.94;;
73132;SDS011;61320;52.008;4.530;2023-04-20T08:12:35;6.09;;;6.09;;
73132;SDS011;61320;52.008;4.530;2023-04-20T08:15:00;6.20;;;6.20;;
73132;SDS011;61320;52.008;4.530;2023-04-20T08:17:29;6.46;;;6.46;;
73132;SDS011;61320;52.008;4.530;2023-04-20T08:19:54;6.40;;;6.40;;
73132;SDS011;61320;52.008;4.530;2023-04-20T08:22:20;6.55;;;6.55;;
73132;SDS011;61320;52.008;4.530;2023-04-20T08:24:45;6.39;;;6.39;;
73132;SDS011;61320;52.008;4.530;2023-04-20T08:27:11;6.02;;;6.02;;
73132;SDS011;61320;52.008;4.530;2023-04-20T08:29:37;6.26;;;6.26;;
73132;SDS011;61320;52.008;4.530;2023-04-20T08:32:03;6.48;;;6.48;;
73132;SDS011;61320;52.008;4.530;2023-04-20T08:34:29;5.80;;;5.80;;
73132;SDS011;61320;52.008;4.530;2023-04-20T08:36:54;6.34;;;6.34;;
73132;SDS011;61320;52.008;4.530;2023-04-20T08:39:20;6.43;;;6.43;;
73132;SDS011;61320;52.008;4.530;2023-04-20T08:41:48;6.49;;;6.49;;
73132;SDS011;61320;52.008;4.530;2023-04-20T08:44:18;6.49;;;6.49;;
73132;SDS011;61320;52.008;4.530;2023-04-20T08:46:45;6.53;;;6.53;;
73132;SDS011;61320;52.008;4.530;2023-04-20T08:49:16;6.71;;;6.71;;
73132;SDS011;61320;52.008;4.530;2023-04-20T08:51:44;6.65;;;6.64;;
73132;SDS011;61320;52.008;4.530;2023-04-20T08:54:10;6.93;;;6.93;;
73132;SDS011;61320;52.008;4.530;2023-04-20T08:56:45;6.69;;;6.69;;
73132;SDS011;61320;52.008;4.530;2023-04-20T08:59:12;6.56;;;6.56;;
73132;SDS011;61320;52.008;4.530;2023-04-20T09:01:39;6.51;;;6.51;;
73132;SDS011;61320;52.008;4.530;2023-04-20T09:04:21;6.42;;;6.42;;
73132;SDS011;61320;52.008;4.530;2023-04-20T09:06:49;6.77;;;6.77;;
73132;SDS011;61320;52.008;4.530;2023-04-20T09:09:23;6.67;;;6.67;;
73132;SDS011;61320;52.008;4.530;2023-04-20T09:12:06;6.36;;;6.36;;
73132;SDS011;61320;52.008;4.530;2023-04-20T09:14:44;6.48;;;6.48;;
73132;SDS011;61320;52.008;4.530;2023-04-20T09:17:12;6.65;;;6.65;;
73132;SDS011;61320;52.008;4.530;2023-04-20T09:19:38;6.58;;;6.58;;
73132;SDS011;61320;52.008;4.530;2023-04-20T09:22:04;6.78;;;6.78;;
73132;SDS011;61320;52.008;4.530;2023-04-20T09:24:31;7.06;;;7.06;;
73132;SDS011;61320;52.008;4.530;2023-04-20T09:26:58;7.04;;;7.04;;
73132;SDS011;61320;52.008;4.530;2023-04-20T09:29:26;6.87;;;6.87;;
73132;SDS011;61320;52.008;4.530;2023-04-20T09:31:52;7.09;;;7.09;;
73132;SDS011;61320;52.008;4.530;2023-04-20T09:34:18;7.07;;;7.07;;
73132;SDS011;61320;52.008;4.530;2023-04-20T09:36:50;7.12;;;7.12;;
73132;SDS011;61320;52.008;4.530;2023-04-20T09:39:18;7.34;;;7.34;;
73132;SDS011;61320;52.008;4.530;2023-04-20T09:41:47;7.98;;;7.98;;
73132;SDS011;61320;52.008;4.530;2023-04-20T09:44:14;7.78;;;7.78;;
73132;SDS011;61320;52.008;4.530;2023-04-20T09:46:41;7.49;;;7.49;;
73132;SDS011;61320;52.008;4.530;2023-04-20T09:49:08;7.30;;;7.30;;
73132;SDS011;61320;52.008;4.530;2023-04-20T09:51:36;7.28;;;7.28;;
73132;SDS011;61320;52.008;4.530;2023-04-20T09:54:06;6.77;;;6.77;;
73132;SDS011;61320;52.008;4.530;2023-04-20T09:56:32;6.94;;;6.94;;
73132;SDS011;61320;52.008;4.530;2023-04-20T09:59:00;6.77;;;6.77;;
73132;SDS011;61320;52.008;4.530;2023-04-20T10:01:28;7.31;;;7.31;;
73132;SDS011;61320;52.008;4.530;2023-04-20T10:03:56;6.96;;;6.96;;
73132;SDS011;61320;52.008;4.530;2023-04-20T10:06:24;7.12;;;7.12;;
73132;SDS011;61320;52.008;4.530;2023-04-20T10:08:55;6.71;;;6.71;;
73132;SDS011;61320;52.008;4.530;2023-04-20T10:13:50;7.15;;;7.15;;
73132;SDS011;61320;52.008;4.530;2023-04-20T10:16:17;6.89;;;6.89;;
73132;SDS011;61320;52.008;4.530;2023-04-20T10:18:43;6.49;;;6.49;;
73132;SDS011;61320;52.008;4.530;2023-04-20T10:21:23;6.55;;;6.55;;
73132;SDS011;61320;52.008;4.530;2023-04-20T10:23:49;6.90;;;6.90;;
73132;SDS011;61320;52.008;4.530;2023-04-20T10:26:16;6.53;;;6.53;;
73132;SDS011;61320;52.008;4.530;2023-04-20T10:28:42;6.78;;;6.78;;
73132;SDS011;61320;52.008;4.530;2023-04-20T10:31:09;6.85;;;6.85;;
73132;SDS011;61320;52.008;4.530;2023-04-20T10:33:51;7.24;;;7.24;;
73132;SDS011;61320;52.008;4.530;2023-04-20T10:36:36;7.19;;;7.19;;
73132;SDS011;61320;52.008;4.530;2023-04-20T10:39:15;7.51;;;7.51;;
73132;SDS011;61320;52.008;4.530;2023-04-20T10:41:52;7.27;;;7.27;;
73132;SDS011;61320;52.008;4.530;2023-04-20T10:44:25;7.28;;;7.28;;
73132;SDS011;61320;52.008;4.530;2023-04-20T10:46:51;7.04;;;7.04;;
73132;SDS011;61320;52.008;4.530;2023-04-20T10:49:17;7.40;;;7.40;;
73132;SDS011;61320;52.008;4.530;2023-04-20T10:51:48;7.52;;;7.52;;
73132;SDS011;61320;52.008;4.530;2023-04-20T10:54:15;7.32;;;7.32;;
73132;SDS011;61320;52.008;4.530;2023-04-20T10:59:07;7.27;;;7.27;;
73132;SDS011;61320;52.008;4.530;2023-04-20T11:01:35;7.61;;;7.61;;
73132;SDS011;61320;52.008;4.530;2023-04-20T11:04:01;7.40;;;7.40;;
73132;SDS011;61320;52.008;4.530;2023-04-20T11:06:26;7.37;;;7.37;;
73132;SDS011;61320;52.008;4.530;2023-04-20T11:08:52;7.45;;;7.45;;
73132;SDS011;61320;52.008;4.530;2023-04-20T11:11:19;7.38;;;7.38;;
73132;SDS011;61320;52.008;4.530;2023-04-20T11:13:46;7.35;;;7.35;;
73132;SDS011;61320;52.008;4.530;2023-04-20T11:16:13;7.85;;;7.85;;
73132;SDS011;61320;52.008;4.530;2023-04-20T11:18:51;8.09;;;8.09;;
73132;SDS011;61320;52.008;4.530;2023-04-20T11:21:18;7.62;;;7.62;;
73132;SDS011;61320;52.008;4.530;2023-04-20T11:23:44;8.04;;;8.04;;
73132;SDS011;61320;52.008;4.530;2023-04-20T11:26:10;7.94;;;7.94;;
73132;SDS011;61320;52.008;4.530;2023-04-20T11:28:35;8.26;;;8.26;;
73132;SDS011;61320;52.008;4.530;2023-04-20T11:31:01;8.35;;;8.35;;
73132;SDS011;61320;52.008;4.530;2023-04-20T11:33:28;8.50;;;8.50;;
73132;SDS011;61320;52.008;4.530;2023-04-20T11:35:56;8.40;;;8.40;;
73132;SDS011;61320;52.008;4.530;2023-04-20T11:38:29;8.16;;;8.16;;
73132;SDS011;61320;52.008;4.530;2023-04-20T11:40:56;8.54;;;8.54;;
73132;SDS011;61320;52.008;4.530;2023-04-20T11:43:28;8.61;;;8.61;;
73132;SDS011;61320;52.008;4.530;2023-04-20T11:45:54;8.60;;;8.60;;
73132;SDS011;61320;52.008;4.530;2023-04-20T11:48:19;7.99;;;7.99;;
73132;SDS011;61320;52.008;4.530;2023-04-20T11:50:45;8.41;;;8.41;;
73132;SDS011;61320;52.008;4.530;2023-04-20T11:53:10;8.25;;;8.25;;
73132;SDS011;61320;52.008;4.530;2023-04-20T11:55:39;8.52;;;8.52;;
73132;SDS011;61320;52.008;4.530;2023-04-20T11:58:06;8.81;;;8.81;;
73132;SDS011;61320;52.008;4.530;2023-04-20T12:00:32;9.18;;;9.18;;
73132;SDS011;61320;52.008;4.530;2023-04-20T12:02:58;9.16;;;9.16;;
73132;SDS011;61320;52.008;4.530;2023-04-20T12:05:24;8.51;;;8.51;;
73132;SDS011;61320;52.008;4.530;2023-04-20T12:07:49;8.37;;;8.37;;
73132;SDS011;61320;52.008;4.530;2023-04-20T12:10:15;8.34;;;8.34;;
73132;SDS011;61320;52.008;4.530;2023-04-20T12:12:40;8.57;;;8.57;;
73132;SDS011;61320;52.008;4.530;2023-04-20T12:15:06;8.98;;;8.98;;
73132;SDS011;61320;52.008;4.530;2023-04-20T12:17:32;8.79;;;8.79;;
73132;SDS011;61320;52.008;4.530;2023-04-20T12:19:57;8.71;;;8.71;;
73132;SDS011;61320;52.008;4.530;2023-04-20T12:22:23;10.54;;;10.54;;
73132;SDS011;61320;52.008;4.530;2023-04-20T12:24:48;8.84;;;8.84;;
73132;SDS011;61320;52.008;4.530;2023-04-20T12:27:14;8.05;;;8.05;;
73132;SDS011;61320;52.008;4.530;2023-04-20T12:29:39;8.37;;;8.37;;
73132;SDS011;61320;52.008;4.530;2023-04-20T12:32:05;8.91;;;8.91;;
73132;SDS011;61320;52.008;4.530;2023-04-20T12:34:30;8.61;;;8.61;;
73132;SDS011;61320;52.008;4.530;2023-04-20T12:36:56;8.80;;;8.80;;
73132;SDS011;61320;52.008;4.530;2023-04-20T12:39:21;8.95;;;8.95;;
73132;SDS011;61320;52.008;4.530;2023-04-20T12:41:46;8.61;;;8.61;;
73132;SDS011;61320;52.008;4.530;2023-04-20T12:44:12;8.80;;;8.80;;
73132;SDS011;61320;52.008;4.530;2023-04-20T12:46:37;8.20;;;8.20;;
73132;SDS011;61320;52.008;4.530;2023-04-20T12:49:03;8.38;;;8.38;;
73132;SDS011;61320;52.008;4.530;2023-04-20T12:51:28;8.05;;;8.05;;
73132;SDS011;61320;52.008;4.530;2023-04-20T12:53:54;8.09;;;8.09;;
73132;SDS011;61320;52.008;4.530;2023-04-20T12:56:19;8.04;;;8.04;;
73132;SDS011;61320;52.008;4.530;2023-04-20T12:58:45;8.91;;;8.91;;
73132;SDS011;61320;52.008;4.530;2023-04-20T13:01:11;9.37;;;9.37;;
73132;SDS011;61320;52.008;4.530;2023-04-20T13:03:36;9.46;;;9.46;;
73132;SDS011;61320;52.008;4.530;2023-04-20T13:06:02;9.61;;;9.61;;
73132;SDS011;61320;52.008;4.530;2023-04-20T13:08:27;9.19;;;9.19;;
73132;SDS011;61320;52.008;4.530;2023-04-20T13:10:52;9.20;;;9.20;;
73132;SDS011;61320;52.008;4.530;2023-04-20T13:13:18;9.47;;;9.47;;
73132;SDS011;61320;52.008;4.530;2023-04-20T13:15:43;8.76;;;8.76;;
73132;SDS011;61320;52.008;4.530;2023-04-20T13:18:09;8.74;;;8.74;;
73132;SDS011;61320;52.008;4.530;2023-04-20T13:20:35;8.80;;;8.80;;
73132;SDS011;61320;52.008;4.530;2023-04-20T13:23:01;8.64;;;8.64;;
73132;SDS011;61320;52.008;4.530;2023-04-20T13:25:28;8.99;;;8.99;;
73132;SDS011;61320;52.008;4.530;2023-04-20T13:27:57;8.89;;;8.89;;
73132;SDS011;61320;52.008;4.530;2023-04-20T13:30:24;9.26;;;9.26;;
73132;SDS011;61320;52.008;4.530;2023-04-20T13:32:50;9.15;;;9.15;;
73132;SDS011;61320;52.008;4.530;2023-04-20T13:35:17;8.90;;;8.90;;
73132;SDS011;61320;52.008;4.530;2023-04-20T13:37:43;9.15;;;9.15;;
73132;SDS011;61320;52.008;4.530;2023-04-20T13:40:09;8.06;;;8.06;;
73132;SDS011;61320;52.008;4.530;2023-04-20T13:42:35;7.73;;;7.73;;
73132;SDS011;61320;52.008;4.530;2023-04-20T13:45:01;8.46;;;8.46;;
73132;SDS011;61320;52.008;4.530;2023-04-20T13:47:27;8.50;;;8.50;;
73132;SDS011;61320;52.008;4.530;2023-04-20T13:49:53;8.77;;;8.77;;
73132;SDS011;61320;52.008;4.530;2023-04-20T13:52:18;8.89;;;8.89;;
73132;SDS011;61320;52.008;4.530;2023-04-20T13:54:44;9.22;;;9.22;;
73132;SDS011;61320;52.008;4.530;2023-04-20T13:57:09;8.83;;;8.83;;
73132;SDS011;61320;52.008;4.530;2023-04-20T13:59:35;9.12;;;9.12;;
73132;SDS011;61320;52.008;4.530;2023-04-20T14:02:00;9.08;;;9.08;;
73132;SDS011;61320;52.008;4.530;2023-04-20T14:04:26;9.39;;;9.39;;
73132;SDS011;61320;52.008;4.530;2023-04-20T14:06:51;9.26;;;9.26;;
73132;SDS011;61320;52.008;4.530;2023-04-20T14:09:17;9.74;;;9.74;;
73132;SDS011;61320;52.008;4.530;2023-04-20T14:11:42;10.12;;;10.12;;
73132;SDS011;61320;52.008;4.530;2023-04-20T14:14:08;10.12;;;10.12;;
73132;SDS011;61320;52.008;4.530;2023-04-20T14:16:44;10.18;;;10.18;;
73132;SDS011;61320;52.008;4.530;2023-04-20T14:19:11;9.69;;;9.69;;
73132;SDS011;61320;52.008;4.530;2023-04-20T14:21:37;9.87;;;9.87;;
73132;SDS011;61320;52.008;4.530;2023-04-20T14:24:04;10.09;;;10.09;;
73132;SDS011;61320;52.008;4.530;2023-04-20T14:26:31;9.58;;;9.58;;
73132;SDS011;61320;52.008;4.530;2023-04-20T14:28:56;9.43;;;9.43;;
73132;SDS011;61320;52.008;4.530;2023-04-20T14:31:22;9.03;;;9.03;;
73132;SDS011;61320;52.008;4.530;2023-04-20T14:33:47;9.17;;;9.17;;
73132;SDS011;61320;52.008;4.530;2023-04-20T14:36:13;9.23;;;9.23;;
73132;SDS011;61320;52.008;4.530;2023-04-20T14:38:38;8.91;;;8.91;;
73132;SDS011;61320;52.008;4.530;2023-04-20T14:41:04;9.31;;;9.31;;
73132;SDS011;61320;52.008;4.530;2023-04-20T14:43:29;9.32;;;9.32;;
73132;SDS011;61320;52.008;4.530;2023-04-20T14:45:56;9.06;;;9.06;;
73132;SDS011;61320;52.008;4.530;2023-04-20T14:48:23;8.53;;;8.53;;